sensor_id;sensor_type;location;lat;lon;timestamp;pressure;altitude;pressure_sealevel;temperature;humidity
21988;BME280;11158;53.404;-1.510;2023-03-03T00:01:38;101909.81;;;6.89;51.71
21988;BME280;11158;53.404;-1.510;2023-03-03T00:04:04;101908.97;;;6.66;53.14
21988;BME280;11158;53.404;-1.510;2023-03-03T02:38:31;101936.28;;;7.34;49.57
21988;BME280;11158;53.404;-1.510;2023-03-03T02:41:17;101934.72;;;8.06;49.05
21988;BME280;11158;53.404;-1.510;2023-03-03T02:46:14;101935.88;;;7.71;50.25
21988;BME280;11158;53.404;-1.510;2023-03-03T02:48:40;101938.56;;;7.71;48.33
21988;BME280;11158;53.404;-1.510;2023-03-03T02:51:06;101932.28;;;7.72;49.21
21988;BME280;11158;53.404;-1.510;2023-03-03T03:09:12;101922.47;;;7.94;49.58
21988;BME280;11158;53.404;-1.510;2023-03-03T03:11:38;101918.78;;;8.37;48.40
21988;BME280;11158;53.404;-1.510;2023-03-03T03:14:06;101918.81;;;7.74;48.99
21988;BME280;11158;53.404;-1.510;2023-03-03T03:16:32;101917.47;;;8.01;48.34
21988;BME280;11158;53.404;-1.510;2023-03-03T03:18:59;101917.78;;;8.07;49.05
21988;BME280;11158;53.404;-1.510;2023-03-03T03:21:25;101920.41;;;7.76;48.75
21988;BME280;11158;53.404;-1.510;2023-03-03T03:23:51;101922.38;;;8.78;46.59
21988;BME280;11158;53.404;-1.510;2023-03-03T03:26:16;101922.84;;;8.10;48.11
21988;BME280;11158;53.404;-1.510;2023-03-03T03:28:42;101913.47;;;7.21;50.28
21988;BME280;11158;53.404;-1.510;2023-03-03T03:31:08;101923.78;;;6.01;53.83
21988;BME280;11158;53.404;-1.510;2023-03-03T03:33:34;101925.69;;;7.12;50.84
21988;BME280;11158;53.404;-1.510;2023-03-03T03:36:00;101914.69;;;7.81;49.24
21988;BME280;11158;53.404;-1.510;2023-03-03T03:38:26;101913.19;;;8.09;47.99
21988;BME280;11158;53.404;-1.510;2023-03-03T03:40:53;101914.66;;;7.60;49.29
21988;BME280;11158;53.404;-1.510;2023-03-03T03:43:18;101921.28;;;8.08;48.88
21988;BME280;11158;53.404;-1.510;2023-03-03T03:45:44;101918.28;;;8.84;47.08
21988;BME280;11158;53.404;-1.510;2023-03-03T03:48:10;101925.25;;;7.71;49.65
21988;BME280;11158;53.404;-1.510;2023-03-03T03:50:36;101921.16;;;8.30;48.12
21988;BME280;11158;53.404;-1.510;2023-03-03T03:53:03;101918.84;;;8.16;47.87
21988;BME280;11158;53.404;-1.510;2023-03-03T03:55:29;101920.69;;;7.83;49.43
21988;BME280;11158;53.404;-1.510;2023-03-03T03:57:55;101910.84;;;7.09;51.61
21988;BME280;11158;53.404;-1.510;2023-03-03T04:00:21;101914.88;;;7.36;51.23
21988;BME280;11158;53.404;-1.510;2023-03-03T04:02:47;101916.03;;;7.75;50.81
21988;BME280;11158;53.404;-1.510;2023-03-03T04:05:13;101915.41;;;8.35;48.80
21988;BME280;11158;53.404;-1.510;2023-03-03T04:07:39;101916.28;;;8.14;48.52
21988;BME280;11158;53.404;-1.510;2023-03-03T04:10:06;101913.03;;;8.63;47.79
21988;BME280;11158;53.404;-1.510;2023-03-03T04:12:31;101914.69;;;8.02;48.84
21988;BME280;11158;53.404;-1.510;2023-03-03T04:15:13;101916.25;;;8.35;48.58
21988;BME280;11158;53.404;-1.510;2023-03-03T04:17:41;101914.06;;;7.57;50.08
21988;BME280;11158;53.404;-1.510;2023-03-03T04:20:07;101918.84;;;7.42;50.93
21988;BME280;11158;53.404;-1.510;2023-03-03T04:22:33;101924.28;;;7.72;49.88
21988;BME280;11158;53.404;-1.510;2023-03-03T04:25:03;101928.34;;;7.55;49.71
21988;BME280;11158;53.404;-1.510;2023-03-03T04:27:33;101921.13;;;7.46;50.11
21988;BME280;11158;53.404;-1.510;2023-03-03T04:30:00;101916.34;;;8.03;48.84
21988;BME280;11158;53.404;-1.510;2023-03-03T04:32:27;101915.06;;;8.18;48.61
21988;BME280;11158;53.404;-1.510;2023-03-03T04:34:53;101920.94;;;8.74;47.60
21988;BME280;11158;53.404;-1.510;2023-03-03T04:37:18;101918.56;;;7.98;48.41
21988;BME280;11158;53.404;-1.510;2023-03-03T04:39:44;101917.00;;;8.16;48.03
21988;BME280;11158;53.404;-1.510;2023-03-03T04:42:10;101910.22;;;8.54;47.32
21988;BME280;11158;53.404;-1.510;2023-03-03T04:44:35;101915.75;;;7.58;49.55
21988;BME280;11158;53.404;-1.510;2023-03-03T04:47:01;101920.28;;;7.46;50.57
21988;BME280;11158;53.404;-1.510;2023-03-03T04:49:26;101921.41;;;6.10;53.59
21988;BME280;11158;53.404;-1.510;2023-03-03T04:51:52;101924.22;;;7.19;50.95
21988;BME280;11158;53.404;-1.510;2023-03-03T04:54:18;101919.06;;;7.18;51.97
21988;BME280;11158;53.404;-1.510;2023-03-03T04:56:44;101926.34;;;7.90;50.25
21988;BME280;11158;53.404;-1.510;2023-03-03T04:59:09;101923.94;;;7.01;51.40
21988;BME280;11158;53.404;-1.510;2023-03-03T05:01:35;101923.06;;;7.01;52.25
21988;BME280;11158;53.404;-1.510;2023-03-03T05:04:01;101927.44;;;6.23;53.67
21988;BME280;11158;53.404;-1.510;2023-03-03T05:06:26;101928.78;;;5.82;54.86
21988;BME280;11158;53.404;-1.510;2023-03-03T05:08:52;101929.59;;;6.18;53.93
21988;BME280;11158;53.404;-1.510;2023-03-03T05:11:17;101925.28;;;6.28;53.62
21988;BME280;11158;53.404;-1.510;2023-03-03T05:13:43;101926.34;;;6.03;54.56
21988;BME280;11158;53.404;-1.510;2023-03-03T05:16:08;101923.13;;;6.33;53.49
21988;BME280;11158;53.404;-1.510;2023-03-03T05:18:34;101918.34;;;7.04;51.52
21988;BME280;11158;53.404;-1.510;2023-03-03T05:21:00;101912.75;;;7.19;50.78
21988;BME280;11158;53.404;-1.510;2023-03-03T05:23:25;101918.84;;;6.98;51.19
21988;BME280;11158;53.404;-1.510;2023-03-03T05:25:51;101915.00;;;7.34;50.75
21988;BME280;11158;53.404;-1.510;2023-03-03T05:28:17;101911.69;;;8.16;49.27
21988;BME280;11158;53.404;-1.510;2023-03-03T05:30:42;101910.91;;;9.07;46.74
21988;BME280;11158;53.404;-1.510;2023-03-03T05:33:11;101900.69;;;9.12;45.80
21988;BME280;11158;53.404;-1.510;2023-03-03T05:35:38;101910.16;;;7.93;48.62
21988;BME280;11158;53.404;-1.510;2023-03-03T05:38:03;101910.56;;;8.19;49.16
21988;BME280;11158;53.404;-1.510;2023-03-03T05:40:29;101909.75;;;8.80;47.50
21988;BME280;11158;53.404;-1.510;2023-03-03T05:42:54;101904.78;;;9.74;45.04
21988;BME280;11158;53.404;-1.510;2023-03-03T05:45:20;101898.25;;;10.06;43.96
21988;BME280;11158;53.404;-1.510;2023-03-03T05:47:46;101904.28;;;10.08;43.83
21988;BME280;11158;53.404;-1.510;2023-03-03T05:50:12;101908.56;;;9.72;44.70
21988;BME280;11158;53.404;-1.510;2023-03-03T05:52:39;101906.69;;;9.14;46.05
21988;BME280;11158;53.404;-1.510;2023-03-03T05:55:05;101911.59;;;8.99;46.53
21988;BME280;11158;53.404;-1.510;2023-03-03T05:57:30;101917.59;;;8.41;49.18
21988;BME280;11158;53.404;-1.510;2023-03-03T05:59:56;101914.38;;;8.47;48.45
21988;BME280;11158;53.404;-1.510;2023-03-03T06:02:22;101913.03;;;8.32;49.76
21988;BME280;11158;53.404;-1.510;2023-03-03T06:04:47;101915.47;;;7.93;52.02
21988;BME280;11158;53.404;-1.510;2023-03-03T06:07:13;101915.94;;;8.90;49.45
21988;BME280;11158;53.404;-1.510;2023-03-03T06:09:39;101917.06;;;8.97;48.83
21988;BME280;11158;53.404;-1.510;2023-03-03T06:12:05;101908.41;;;9.05;49.13
21988;BME280;11158;53.404;-1.510;2023-03-03T06:14:30;101912.47;;;8.59;49.45
21988;BME280;11158;53.404;-1.510;2023-03-03T06:16:56;101906.47;;;9.46;47.68
21988;BME280;11158;53.404;-1.510;2023-03-03T06:19:23;101913.63;;;9.16;48.64
21988;BME280;11158;53.404;-1.510;2023-03-03T06:21:48;101916.28;;;9.46;47.69
21988;BME280;11158;53.404;-1.510;2023-03-03T06:24:14;101911.81;;;9.56;47.62
21988;BME280;11158;53.404;-1.510;2023-03-03T06:26:40;101919.00;;;8.86;49.43
21988;BME280;11158;53.404;-1.510;2023-03-03T06:29:06;101922.59;;;7.71;52.03
21988;BME280;11158;53.404;-1.510;2023-03-03T06:31:31;101919.19;;;8.53;50.32
21988;BME280;11158;53.404;-1.510;2023-03-03T06:33:57;101928.69;;;7.62;52.75
21988;BME280;11158;53.404;-1.510;2023-03-03T06:36:22;101925.69;;;8.39;50.96
21988;BME280;11158;53.404;-1.510;2023-03-03T06:38:50;101925.47;;;7.80;52.43
21988;BME280;11158;53.404;-1.510;2023-03-03T06:41:15;101926.91;;;8.35;51.83
21988;BME280;11158;53.404;-1.510;2023-03-03T06:43:41;101930.59;;;8.13;52.08
21988;BME280;11158;53.404;-1.510;2023-03-03T06:46:07;101929.47;;;8.16;51.54
21988;BME280;11158;53.404;-1.510;2023-03-03T06:48:33;101941.59;;;7.67;53.15
21988;BME280;11158;53.404;-1.510;2023-03-03T06:51:01;101929.06;;;7.79;53.01
21988;BME280;11158;53.404;-1.510;2023-03-03T06:53:27;101943.63;;;7.74;52.38
21988;BME280;11158;53.404;-1.510;2023-03-03T06:55:55;101936.97;;;8.43;50.84
21988;BME280;11158;53.404;-1.510;2023-03-03T06:58:21;101941.31;;;8.23;51.24
21988;BME280;11158;53.404;-1.510;2023-03-03T07:00:57;101945.53;;;8.05;51.63
21988;BME280;11158;53.404;-1.510;2023-03-03T07:03:33;101949.63;;;8.09;51.63
21988;BME280;11158;53.404;-1.510;2023-03-03T07:06:00;101945.66;;;8.76;50.51
21988;BME280;11158;53.404;-1.510;2023-03-03T07:08:29;101954.53;;;7.71;52.72
21988;BME280;11158;53.404;-1.510;2023-03-03T07:11:00;101961.50;;;8.26;51.85
21988;BME280;11158;53.404;-1.510;2023-03-03T07:13:31;101967.78;;;8.04;53.21
21988;BME280;11158;53.404;-1.510;2023-03-03T07:15:59;101970.59;;;6.60;56.93
21988;BME280;11158;53.404;-1.510;2023-03-03T07:20:57;101978.34;;;6.05;59.78
21988;BME280;11158;53.404;-1.510;2023-03-03T07:23:27;101981.63;;;5.37;62.58
21988;BME280;11158;53.404;-1.510;2023-03-03T07:25:55;101988.34;;;6.02;60.90
21988;BME280;11158;53.404;-1.510;2023-03-03T07:28:27;101976.38;;;6.88;57.95
21988;BME280;11158;53.404;-1.510;2023-03-03T07:30:53;101976.25;;;7.01;56.74
21988;BME280;11158;53.404;-1.510;2023-03-03T07:33:26;101982.31;;;7.79;55.09
21988;BME280;11158;53.404;-1.510;2023-03-03T07:35:55;101981.44;;;8.10;54.28
21988;BME280;11158;53.404;-1.510;2023-03-03T07:38:33;101981.09;;;6.96;55.97
21988;BME280;11158;53.404;-1.510;2023-03-03T07:41:00;101980.34;;;6.93;55.50
21988;BME280;11158;53.404;-1.510;2023-03-03T07:43:34;101982.31;;;7.79;53.89
21988;BME280;11158;53.404;-1.510;2023-03-03T07:48:36;101992.56;;;6.96;56.20
21988;BME280;11158;53.404;-1.510;2023-03-03T07:51:20;101999.06;;;7.26;55.70
21988;BME280;11158;53.404;-1.510;2023-03-03T07:56:56;101987.03;;;8.49;52.26
21988;BME280;11158;53.404;-1.510;2023-03-03T07:59:24;101991.22;;;8.42;51.75
21988;BME280;11158;53.404;-1.510;2023-03-03T08:07:01;101993.38;;;9.19;50.32
21988;BME280;11158;53.404;-1.510;2023-03-03T08:09:44;101991.34;;;8.62;51.54
21988;BME280;11158;53.404;-1.510;2023-03-03T08:14:55;101998.88;;;8.87;51.98
21988;BME280;11158;53.404;-1.510;2023-03-03T08:17:34;101998.34;;;8.21;52.91
21988;BME280;11158;53.404;-1.510;2023-03-03T08:20:28;102008.47;;;7.41;55.60
21988;BME280;11158;53.404;-1.510;2023-03-03T08:22:53;102014.91;;;6.82;58.62
21988;BME280;11158;53.404;-1.510;2023-03-03T08:25:19;102006.91;;;7.27;57.76
21988;BME280;11158;53.404;-1.510;2023-03-03T08:27:46;102020.50;;;7.02;59.14
21988;BME280;11158;53.404;-1.510;2023-03-03T08:30:12;102013.13;;;7.92;54.81
21988;BME280;11158;53.404;-1.510;2023-03-03T08:32:37;102019.94;;;7.85;55.63
21988;BME280;11158;53.404;-1.510;2023-03-03T08:35:03;102028.75;;;7.53;57.22
21988;BME280;11158;53.404;-1.510;2023-03-03T08:37:29;102019.13;;;8.27;54.56
21988;BME280;11158;53.404;-1.510;2023-03-03T08:39:54;102018.50;;;8.86;52.59
21988;BME280;11158;53.404;-1.510;2023-03-03T08:42:20;102024.06;;;8.10;54.36
21988;BME280;11158;53.404;-1.510;2023-03-03T08:44:45;102024.06;;;7.78;55.56
21988;BME280;11158;53.404;-1.510;2023-03-03T08:47:11;102028.25;;;8.45;53.01
21988;BME280;11158;53.404;-1.510;2023-03-03T08:49:37;102031.00;;;8.02;53.25
21988;BME280;11158;53.404;-1.510;2023-03-03T08:52:04;102032.34;;;8.49;53.11
21988;BME280;11158;53.404;-1.510;2023-03-03T08:54:30;102038.97;;;6.81;56.49
21988;BME280;11158;53.404;-1.510;2023-03-03T08:56:55;102039.06;;;6.68;58.33
21988;BME280;11158;53.404;-1.510;2023-03-03T08:59:21;102034.09;;;6.52;58.74
21988;BME280;11158;53.404;-1.510;2023-03-03T09:01:47;102037.63;;;7.20;56.75
21988;BME280;11158;53.404;-1.510;2023-03-03T09:04:12;102047.50;;;6.39;59.18
21988;BME280;11158;53.404;-1.510;2023-03-03T09:06:38;102041.03;;;7.22;58.33
21988;BME280;11158;53.404;-1.510;2023-03-03T09:09:04;102031.81;;;7.38;56.19
21988;BME280;11158;53.404;-1.510;2023-03-03T09:11:29;102033.50;;;7.27;56.87
21988;BME280;11158;53.404;-1.510;2023-03-03T09:14:17;102041.25;;;7.30;56.83
21988;BME280;11158;53.404;-1.510;2023-03-03T09:16:53;102035.56;;;7.79;55.77
21988;BME280;11158;53.404;-1.510;2023-03-03T09:19:30;102047.78;;;6.70;58.52
21988;BME280;11158;53.404;-1.510;2023-03-03T09:22:01;102049.88;;;5.59;61.38
21988;BME280;11158;53.404;-1.510;2023-03-03T09:24:29;102056.75;;;6.34;59.51
21988;BME280;11158;53.404;-1.510;2023-03-03T09:26:56;102053.00;;;5.77;61.30
21988;BME280;11158;53.404;-1.510;2023-03-03T09:29:30;102049.47;;;6.71;57.61
21988;BME280;11158;53.404;-1.510;2023-03-03T09:32:26;102061.34;;;6.32;58.97
21988;BME280;11158;53.404;-1.510;2023-03-03T09:34:48;102050.06;;;6.75;56.85
21988;BME280;11158;53.404;-1.510;2023-03-03T09:39:39;102062.28;;;5.95;59.03
21988;BME280;11158;53.404;-1.510;2023-03-03T09:42:59;102063.44;;;6.39;58.16
21988;BME280;11158;53.404;-1.510;2023-03-03T09:45:25;102062.69;;;6.37;57.11
21988;BME280;11158;53.404;-1.510;2023-03-03T09:48:21;102065.50;;;5.75;59.79
21988;BME280;11158;53.404;-1.510;2023-03-03T09:56:38;102072.59;;;5.87;58.29
21988;BME280;11158;53.404;-1.510;2023-03-03T10:02:28;102070.53;;;5.91;57.40
21988;BME280;11158;53.404;-1.510;2023-03-03T10:05:25;102079.31;;;6.28;56.92
21988;BME280;11158;53.404;-1.510;2023-03-03T10:19:21;102077.53;;;6.98;55.22
21988;BME280;11158;53.404;-1.510;2023-03-03T10:22:00;102072.00;;;8.10;51.57
21988;BME280;11158;53.404;-1.510;2023-03-03T10:24:37;102074.31;;;8.04;53.05
21988;BME280;11158;53.404;-1.510;2023-03-03T10:30:27;102078.69;;;7.72;54.08
21988;BME280;11158;53.404;-1.510;2023-03-03T10:33:01;102072.59;;;8.67;51.03
21988;BME280;11158;53.404;-1.510;2023-03-03T10:35:37;102066.03;;;9.33;49.97
21988;BME280;11158;53.404;-1.510;2023-03-03T10:38:29;102061.94;;;8.46;50.94
21988;BME280;11158;53.404;-1.510;2023-03-03T10:41:14;102071.19;;;7.98;52.96
21988;BME280;11158;53.404;-1.510;2023-03-03T10:47:13;102069.72;;;8.06;53.07
21988;BME280;11158;53.404;-1.510;2023-03-03T10:49:50;102061.94;;;8.14;52.66
21988;BME280;11158;53.404;-1.510;2023-03-03T10:57:38;102068.03;;;8.79;50.50
21988;BME280;11158;53.404;-1.510;2023-03-03T11:00:43;102070.25;;;8.53;51.19
21988;BME280;11158;53.404;-1.510;2023-03-03T11:16:46;102072.47;;;7.06;55.25
21988;BME280;11158;53.404;-1.510;2023-03-03T11:19:30;102077.41;;;6.99;55.45
21988;BME280;11158;53.404;-1.510;2023-03-03T11:22:22;102075.28;;;7.70;54.02
21988;BME280;11158;53.404;-1.510;2023-03-03T11:25:26;102072.53;;;7.61;54.90
21988;BME280;11158;53.404;-1.510;2023-03-03T11:31:12;102080.44;;;7.28;56.68
21988;BME280;11158;53.404;-1.510;2023-03-03T11:39:33;102082.81;;;8.62;54.42
21988;BME280;11158;53.404;-1.510;2023-03-03T11:42:26;102078.38;;;8.93;54.56
21988;BME280;11158;53.404;-1.510;2023-03-03T11:45:02;102078.97;;;6.79;59.03
21988;BME280;11158;53.404;-1.510;2023-03-03T11:51:00;102086.25;;;7.22;59.15
21988;BME280;11158;53.404;-1.510;2023-03-03T11:56:29;102089.13;;;7.19;60.37
21988;BME280;11158;53.404;-1.510;2023-03-03T12:04:12;102093.00;;;6.92;61.89
21988;BME280;11158;53.404;-1.510;2023-03-03T12:07:21;102087.66;;;7.49;60.69
21988;BME280;11158;53.404;-1.510;2023-03-03T12:12:23;102089.63;;;8.55;58.01
21988;BME280;11158;53.404;-1.510;2023-03-03T12:15:16;102077.63;;;9.62;54.51
21988;BME280;11158;53.404;-1.510;2023-03-03T12:18:09;102074.34;;;10.29;52.08
21988;BME280;11158;53.404;-1.510;2023-03-03T12:20:54;102077.84;;;9.50;53.79
21988;BME280;11158;53.404;-1.510;2023-03-03T12:26:05;102076.31;;;10.93;49.21
21988;BME280;11158;53.404;-1.510;2023-03-03T12:31:37;102064.69;;;11.12;47.58
21988;BME280;11158;53.404;-1.510;2023-03-03T12:34:20;102061.69;;;12.60;44.91
21988;BME280;11158;53.404;-1.510;2023-03-03T12:47:45;102056.56;;;9.89;47.32
21988;BME280;11158;53.404;-1.510;2023-03-03T12:50:26;102050.09;;;10.40;46.46
21988;BME280;11158;53.404;-1.510;2023-03-03T12:53:13;102034.34;;;11.49;44.16
21988;BME280;11158;53.404;-1.510;2023-03-03T12:55:52;102028.50;;;11.08;44.66
21988;BME280;11158;53.404;-1.510;2023-03-03T13:03:54;102043.25;;;8.67;49.54
21988;BME280;11158;53.404;-1.510;2023-03-03T13:06:27;102043.50;;;8.85;48.32
21988;BME280;11158;53.404;-1.510;2023-03-03T13:12:16;102040.75;;;8.96;47.80
21988;BME280;11158;53.404;-1.510;2023-03-03T13:14:52;102040.19;;;8.30;49.35
21988;BME280;11158;53.404;-1.510;2023-03-03T13:17:29;102033.66;;;9.76;47.08
21988;BME280;11158;53.404;-1.510;2023-03-03T13:19:58;102037.69;;;9.61;47.07
21988;BME280;11158;53.404;-1.510;2023-03-03T13:23:06;102034.91;;;10.50;44.81
21988;BME280;11158;53.404;-1.510;2023-03-03T13:25:46;102030.78;;;10.56;44.54
21988;BME280;11158;53.404;-1.510;2023-03-03T13:30:49;102033.72;;;8.65;49.41
21988;BME280;11158;53.404;-1.510;2023-03-03T13:36:12;102020.47;;;9.15;49.37
21988;BME280;11158;53.404;-1.510;2023-03-03T13:38:45;102018.75;;;9.83;46.94
21988;BME280;11158;53.404;-1.510;2023-03-03T13:43:49;102018.00;;;9.52;48.00
21988;BME280;11158;53.404;-1.510;2023-03-03T13:46:29;102015.34;;;10.20;46.15
21988;BME280;11158;53.404;-1.510;2023-03-03T13:51:41;102016.16;;;9.33;45.97
21988;BME280;11158;53.404;-1.510;2023-03-03T13:54:17;102010.16;;;10.09;44.37
21988;BME280;11158;53.404;-1.510;2023-03-03T14:10:48;102011.53;;;9.45;46.35
21988;BME280;11158;53.404;-1.510;2023-03-03T14:13:25;102022.91;;;8.97;47.53
21988;BME280;11158;53.404;-1.510;2023-03-03T14:18:54;102011.66;;;9.43;46.42
21988;BME280;11158;53.404;-1.510;2023-03-03T14:21:37;102015.22;;;9.73;46.31
21988;BME280;11158;53.404;-1.510;2023-03-03T14:24:21;102010.44;;;10.16;44.91
21988;BME280;11158;53.404;-1.510;2023-03-03T14:26:55;102008.34;;;10.19;45.32
21988;BME280;11158;53.404;-1.510;2023-03-03T14:31:57;101997.66;;;9.01;48.44
21988;BME280;11158;53.404;-1.510;2023-03-03T14:34:40;102007.75;;;8.97;48.46
21988;BME280;11158;53.404;-1.510;2023-03-03T14:37:27;101997.09;;;10.06;45.78
21988;BME280;11158;53.404;-1.510;2023-03-03T14:40:15;101990.34;;;9.63;47.04
21988;BME280;11158;53.404;-1.510;2023-03-03T14:45:40;101991.69;;;8.78;49.67
21988;BME280;11158;53.404;-1.510;2023-03-03T14:50:42;101985.72;;;9.84;47.01
21988;BME280;11158;53.404;-1.510;2023-03-03T14:55:45;101979.16;;;10.55;45.57
21988;BME280;11158;53.404;-1.510;2023-03-03T15:01:14;101978.13;;;9.51;47.66
21988;BME280;11158;53.404;-1.510;2023-03-03T15:06:29;101980.31;;;9.26;49.36
21988;BME280;11158;53.404;-1.510;2023-03-03T15:08:56;101977.13;;;9.61;47.96
21988;BME280;11158;53.404;-1.510;2023-03-03T15:11:26;101974.56;;;9.31;49.23
21988;BME280;11158;53.404;-1.510;2023-03-03T15:14:14;101979.25;;;9.58;48.72
21988;BME280;11158;53.404;-1.510;2023-03-03T15:16:41;101969.69;;;10.04;47.46
21988;BME280;11158;53.404;-1.510;2023-03-03T15:22:14;101969.69;;;8.95;49.15
21988;BME280;11158;53.404;-1.510;2023-03-03T15:24:49;101967.38;;;9.12;48.58
21988;BME280;11158;53.404;-1.510;2023-03-03T15:27:27;101964.38;;;8.95;48.94
21988;BME280;11158;53.404;-1.510;2023-03-03T15:32:48;101965.56;;;8.41;51.36
21988;BME280;11158;53.404;-1.510;2023-03-03T15:40:49;101951.66;;;10.73;46.49
21988;BME280;11158;53.404;-1.510;2023-03-03T15:43:26;101959.13;;;8.84;51.08
21988;BME280;11158;53.404;-1.510;2023-03-03T15:49:21;101955.81;;;9.71;49.13
21988;BME280;11158;53.404;-1.510;2023-03-03T15:52:33;101947.00;;;10.27;48.29
21988;BME280;11158;53.404;-1.510;2023-03-03T16:00:35;101941.81;;;10.36;46.69
21988;BME280;11158;53.404;-1.510;2023-03-03T16:03:18;101946.91;;;9.90;48.30
21988;BME280;11158;53.404;-1.510;2023-03-03T16:05:52;101946.34;;;9.28;49.69
21988;BME280;11158;53.404;-1.510;2023-03-03T16:11:07;101948.91;;;9.78;49.48
21988;BME280;11158;53.404;-1.510;2023-03-03T16:16:23;101950.78;;;8.98;49.77
21988;BME280;11158;53.404;-1.510;2023-03-03T16:24:27;101949.66;;;8.60;51.42
21988;BME280;11158;53.404;-1.510;2023-03-03T16:27:05;101956.47;;;8.84;50.54
21988;BME280;11158;53.404;-1.510;2023-03-03T16:29:59;101957.22;;;8.96;51.03
21988;BME280;11158;53.404;-1.510;2023-03-03T16:35:18;101955.94;;;9.60;49.21
21988;BME280;11158;53.404;-1.510;2023-03-03T16:46:36;101958.69;;;9.39;49.18
21988;BME280;11158;53.404;-1.510;2023-03-03T16:49:38;101960.56;;;9.58;48.35
21988;BME280;11158;53.404;-1.510;2023-03-03T16:52:12;101957.59;;;9.71;47.02
21988;BME280;11158;53.404;-1.510;2023-03-03T16:54:46;101964.91;;;9.69;46.32
21988;BME280;11158;53.404;-1.510;2023-03-03T16:57:39;101965.63;;;9.61;46.43
21988;BME280;11158;53.404;-1.510;2023-03-03T17:00:23;101966.44;;;8.82;48.20
21988;BME280;11158;53.404;-1.510;2023-03-03T17:02:54;101963.38;;;9.66;45.70
21988;BME280;11158;53.404;-1.510;2023-03-03T17:11:21;101973.31;;;9.35;47.76
21988;BME280;11158;53.404;-1.510;2023-03-03T17:16:59;101977.22;;;9.21;47.62
21988;BME280;11158;53.404;-1.510;2023-03-03T17:25:43;101982.03;;;9.37;47.14
21988;BME280;11158;53.404;-1.510;2023-03-03T17:31:40;101986.16;;;9.00;48.88
21988;BME280;11158;53.404;-1.510;2023-03-03T17:40:00;101990.94;;;8.45;53.26
21988;BME280;11158;53.404;-1.510;2023-03-03T17:47:44;101986.38;;;8.36;53.58
21988;BME280;11158;53.404;-1.510;2023-03-03T18:14:27;102008.03;;;8.64;53.60
21988;BME280;11158;53.404;-1.510;2023-03-03T18:20:20;102013.78;;;9.30;51.53
21988;BME280;11158;53.404;-1.510;2023-03-03T18:22:50;102020.19;;;9.28;50.90
21988;BME280;11158;53.404;-1.510;2023-03-03T18:25:21;102024.19;;;9.43;50.67
21988;BME280;11158;53.404;-1.510;2023-03-03T18:30:58;102028.06;;;8.58;51.46
21988;BME280;11158;53.404;-1.510;2023-03-03T18:34:09;102030.34;;;9.43;49.27
21988;BME280;11158;53.404;-1.510;2023-03-03T18:36:59;102027.53;;;7.90;50.28
21988;BME280;11158;53.404;-1.510;2023-03-03T18:40:14;102029.69;;;9.51;47.31
21988;BME280;11158;53.404;-1.510;2023-03-03T18:42:39;102027.47;;;9.76;46.19
21988;BME280;11158;53.404;-1.510;2023-03-03T18:48:14;102041.31;;;9.00;48.39
21988;BME280;11158;53.404;-1.510;2023-03-03T18:50:42;102041.50;;;9.08;47.88
21988;BME280;11158;53.404;-1.510;2023-03-03T18:53:15;102046.16;;;8.85;48.16
21988;BME280;11158;53.404;-1.510;2023-03-03T18:55:47;102052.50;;;8.42;49.58
21988;BME280;11158;53.404;-1.510;2023-03-03T19:00:54;102045.69;;;9.41;47.53
21988;BME280;11158;53.404;-1.510;2023-03-03T19:03:31;102045.72;;;9.71;47.02
21988;BME280;11158;53.404;-1.510;2023-03-03T19:05:58;102057.94;;;8.41;49.91
21988;BME280;11158;53.404;-1.510;2023-03-03T19:08:53;102056.78;;;9.06;48.93
21988;BME280;11158;53.404;-1.510;2023-03-03T19:16:39;102061.09;;;8.97;49.68
21988;BME280;11158;53.404;-1.510;2023-03-03T19:19:10;102065.88;;;8.52;50.61
21988;BME280;11158;53.404;-1.510;2023-03-03T19:21:39;102063.50;;;9.00;49.19
21988;BME280;11158;53.404;-1.510;2023-03-03T19:24:39;102072.47;;;8.48;50.26
21988;BME280;11158;53.404;-1.510;2023-03-03T19:32:45;102076.66;;;8.92;49.58
21988;BME280;11158;53.404;-1.510;2023-03-03T19:35:27;102082.88;;;7.86;51.37
21988;BME280;11158;53.404;-1.510;2023-03-03T19:41:01;102078.00;;;8.24;50.75
21988;BME280;11158;53.404;-1.510;2023-03-03T19:43:52;102077.84;;;8.78;49.68
21988;BME280;11158;53.404;-1.510;2023-03-03T19:52:38;102084.22;;;8.45;50.49
21988;BME280;11158;53.404;-1.510;2023-03-03T19:55:31;102081.19;;;8.71;48.89
21988;BME280;11158;53.404;-1.510;2023-03-03T20:00:41;102077.75;;;7.94;49.61
21988;BME280;11158;53.404;-1.510;2023-03-03T20:03:45;102076.81;;;9.81;46.48
21988;BME280;11158;53.404;-1.510;2023-03-03T20:12:24;102083.72;;;10.13;44.65
21988;BME280;11158;53.404;-1.510;2023-03-03T20:15:08;102091.22;;;8.88;47.42
21988;BME280;11158;53.404;-1.510;2023-03-03T20:22:55;102088.66;;;7.37;52.83
21988;BME280;11158;53.404;-1.510;2023-03-03T20:25:31;102090.28;;;7.60;52.38
21988;BME280;11158;53.404;-1.510;2023-03-03T20:30:53;102100.38;;;8.00;51.88
21988;BME280;11158;53.404;-1.510;2023-03-03T20:33:44;102099.81;;;7.85;52.05
21988;BME280;11158;53.404;-1.510;2023-03-03T20:36:32;102095.22;;;8.73;49.71
21988;BME280;11158;53.404;-1.510;2023-03-03T20:39:06;102097.81;;;7.55;52.25
21988;BME280;11158;53.404;-1.510;2023-03-03T21:00:39;102112.22;;;8.07;50.44
21988;BME280;11158;53.404;-1.510;2023-03-03T21:05:57;102109.38;;;9.25;47.55
21988;BME280;11158;53.404;-1.510;2023-03-03T21:08:53;102109.03;;;9.39;47.24
21988;BME280;11158;53.404;-1.510;2023-03-03T21:13:48;102111.84;;;8.44;50.64
21988;BME280;11158;53.404;-1.510;2023-03-03T21:19:05;102128.25;;;8.60;49.26
21988;BME280;11158;53.404;-1.510;2023-03-03T21:21:38;102131.19;;;8.57;49.40
21988;BME280;11158;53.404;-1.510;2023-03-03T21:24:06;102132.06;;;8.68;49.27
21988;BME280;11158;53.404;-1.510;2023-03-03T21:26:51;102151.03;;;6.99;53.13
21988;BME280;11158;53.404;-1.510;2023-03-03T21:29:27;102156.47;;;6.62;54.68
21988;BME280;11158;53.404;-1.510;2023-03-03T21:31:58;102158.50;;;7.05;53.61
21988;BME280;11158;53.404;-1.510;2023-03-03T21:34:27;102159.16;;;6.73;54.15
21988;BME280;11158;53.404;-1.510;2023-03-03T21:36:53;102157.78;;;7.03;52.70
21988;BME280;11158;53.404;-1.510;2023-03-03T21:42:13;102141.94;;;8.24;49.71